logo
Search for airport 
image banner adimage banner adimage banner ad
image banner ad

MDES - Penuela

Located in Valverde, Dominican Republic

ICAO - , IATA -

Data provided by Airmate  

General information

Coordinates: N19°35'3" W70°57'32"
Elevation is 328 feet MSL.
 
View others Airports in Valverde Province

Operational data

Special qualification required
Current time UTC:
Current local time:
Weather at : MDST - Cibao Intl Airport ( 42 km )
METAR: MDST 242000Z 12006KT 070V160 9999 FEW024CB SCT028 34/25 Q1011 CB/S/NW
View NOTAMs / SUP AIP / TFR affecting this airport [VIEW]
Communications frequencies: [VIEW]

Runways:

RWY identifierQFULength (ft)Width (ft)SurfaceLDA (ft)
0900UNK
2700UNK

Airport contact information

Address: Valverde Dominican Republic

Satellite view of MDES